sensor_id;sensor_type;location;lat;lon;timestamp;temperature;humidity
19385;DHT22;9828;54.122;17.974;2022-09-14T00:02:05;13.00;99.90
19385;DHT22;9828;54.122;17.974;2022-09-14T00:07:27;13.00;99.90
19385;DHT22;9828;54.122;17.974;2022-09-14T00:12:48;13.10;99.90
19385;DHT22;9828;54.122;17.974;2022-09-14T00:18:10;13.10;99.90
19385;DHT22;9828;54.122;17.974;2022-09-14T00:23:34;13.20;99.90
19385;DHT22;9828;54.122;17.974;2022-09-14T00:28:57;13.20;99.90
19385;DHT22;9828;54.122;17.974;2022-09-14T00:34:19;13.20;99.90
19385;DHT22;9828;54.122;17.974;2022-09-14T00:39:41;13.20;99.90
19385;DHT22;9828;54.122;17.974;2022-09-14T00:45:21;13.30;99.90
19385;DHT22;9828;54.122;17.974;2022-09-14T00:50:42;13.30;99.90
19385;DHT22;9828;54.122;17.974;2022-09-14T00:56:04;13.30;99.90
19385;DHT22;9828;54.122;17.974;2022-09-14T01:01:26;13.30;99.90
19385;DHT22;9828;54.122;17.974;2022-09-14T01:06:54;13.20;99.90
19385;DHT22;9828;54.122;17.974;2022-09-14T01:18:28;13.30;99.90
19385;DHT22;9828;54.122;17.974;2022-09-14T01:40:47;13.30;99.90
19385;DHT22;9828;54.122;17.974;2022-09-14T01:46:22;13.20;99.90
19385;DHT22;9828;54.122;17.974;2022-09-14T01:51:57;13.20;99.90
19385;DHT22;9828;54.122;17.974;2022-09-14T01:57:27;13.30;99.90
19385;DHT22;9828;54.122;17.974;2022-09-14T02:03:11;13.30;99.90
19385;DHT22;9828;54.122;17.974;2022-09-14T02:08:33;13.20;99.90
19385;DHT22;9828;54.122;17.974;2022-09-14T02:13:55;13.20;99.90
19385;DHT22;9828;54.122;17.974;2022-09-14T02:19:17;13.10;99.90
19385;DHT22;9828;54.122;17.974;2022-09-14T02:24:41;13.10;99.90
19385;DHT22;9828;54.122;17.974;2022-09-14T02:30:03;13.00;99.90
19385;DHT22;9828;54.122;17.974;2022-09-14T02:35:35;12.90;99.90
19385;DHT22;9828;54.122;17.974;2022-09-14T02:41:22;12.80;99.90
19385;DHT22;9828;54.122;17.974;2022-09-14T02:46:59;12.80;99.90
19385;DHT22;9828;54.122;17.974;2022-09-14T02:53:10;12.80;99.90
19385;DHT22;9828;54.122;17.974;2022-09-14T02:58:38;12.80;99.90
19385;DHT22;9828;54.122;17.974;2022-09-14T03:04:00;12.90;99.90
19385;DHT22;9828;54.122;17.974;2022-09-14T03:09:22;12.90;99.90
19385;DHT22;9828;54.122;17.974;2022-09-14T03:14:46;12.90;99.90
19385;DHT22;9828;54.122;17.974;2022-09-14T03:20:13;13.00;99.90
19385;DHT22;9828;54.122;17.974;2022-09-14T03:25:39;13.00;99.90
19385;DHT22;9828;54.122;17.974;2022-09-14T03:31:02;12.90;99.90
19385;DHT22;9828;54.122;17.974;2022-09-14T03:36:26;12.80;99.90
19385;DHT22;9828;54.122;17.974;2022-09-14T03:41:48;12.80;99.90
19385;DHT22;9828;54.122;17.974;2022-09-14T03:47:09;12.80;99.90
19385;DHT22;9828;54.122;17.974;2022-09-14T03:52:31;12.80;99.90
19385;DHT22;9828;54.122;17.974;2022-09-14T03:57:54;12.90;99.90
19385;DHT22;9828;54.122;17.974;2022-09-14T04:03:15;12.90;99.90
19385;DHT22;9828;54.122;17.974;2022-09-14T04:08:39;12.90;99.90
19385;DHT22;9828;54.122;17.974;2022-09-14T04:14:04;12.90;99.90
19385;DHT22;9828;54.122;17.974;2022-09-14T04:19:25;12.90;99.90
19385;DHT22;9828;54.122;17.974;2022-09-14T04:25:07;13.00;99.90
19385;DHT22;9828;54.122;17.974;2022-09-14T04:30:28;13.00;99.90
19385;DHT22;9828;54.122;17.974;2022-09-14T04:36:01;13.00;99.90
19385;DHT22;9828;54.122;17.974;2022-09-14T04:41:24;13.10;99.90
19385;DHT22;9828;54.122;17.974;2022-09-14T04:46:45;13.00;99.90
19385;DHT22;9828;54.122;17.974;2022-09-14T04:52:07;13.00;99.90
19385;DHT22;9828;54.122;17.974;2022-09-14T04:57:28;13.00;99.90
19385;DHT22;9828;54.122;17.974;2022-09-14T05:02:49;13.00;99.90
19385;DHT22;9828;54.122;17.974;2022-09-14T05:08:10;13.10;99.90
19385;DHT22;9828;54.122;17.974;2022-09-14T05:13:32;13.10;99.90
19385;DHT22;9828;54.122;17.974;2022-09-14T05:18:55;13.10;99.90
19385;DHT22;9828;54.122;17.974;2022-09-14T05:24:17;13.10;99.90
19385;DHT22;9828;54.122;17.974;2022-09-14T05:29:39;13.30;99.90
19385;DHT22;9828;54.122;17.974;2022-09-14T05:35:00;13.30;99.90
19385;DHT22;9828;54.122;17.974;2022-09-14T05:40:22;13.40;99.90
19385;DHT22;9828;54.122;17.974;2022-09-14T05:45:43;13.50;99.90
19385;DHT22;9828;54.122;17.974;2022-09-14T05:51:09;13.50;99.90
19385;DHT22;9828;54.122;17.974;2022-09-14T05:56:31;13.60;99.90
19385;DHT22;9828;54.122;17.974;2022-09-14T06:01:53;13.60;99.90
19385;DHT22;9828;54.122;17.974;2022-09-14T06:07:14;13.70;99.90
19385;DHT22;9828;54.122;17.974;2022-09-14T06:12:38;13.80;99.90
19385;DHT22;9828;54.122;17.974;2022-09-14T06:17:59;13.90;99.90
19385;DHT22;9828;54.122;17.974;2022-09-14T06:23:21;14.00;99.90
19385;DHT22;9828;54.122;17.974;2022-09-14T06:28:43;14.10;99.90
19385;DHT22;9828;54.122;17.974;2022-09-14T06:34:04;14.20;99.90
19385;DHT22;9828;54.122;17.974;2022-09-14T06:39:25;14.70;99.90
19385;DHT22;9828;54.122;17.974;2022-09-14T06:44:46;14.70;99.90
19385;DHT22;9828;54.122;17.974;2022-09-14T06:50:07;14.50;99.90
19385;DHT22;9828;54.122;17.974;2022-09-14T06:55:28;14.20;99.90
19385;DHT22;9828;54.122;17.974;2022-09-14T07:00:50;14.20;99.90
19385;DHT22;9828;54.122;17.974;2022-09-14T07:06:17;14.40;99.90
19385;DHT22;9828;54.122;17.974;2022-09-14T07:11:39;14.50;99.90
19385;DHT22;9828;54.122;17.974;2022-09-14T07:17:00;14.80;99.90
19385;DHT22;9828;54.122;17.974;2022-09-14T07:22:22;15.10;99.90
19385;DHT22;9828;54.122;17.974;2022-09-14T07:27:43;15.50;99.90
19385;DHT22;9828;54.122;17.974;2022-09-14T07:33:04;15.70;1.00
19385;DHT22;9828;54.122;17.974;2022-09-14T07:38:25;15.70;1.00
19385;DHT22;9828;54.122;17.974;2022-09-14T07:44:04;16.40;99.90
19385;DHT22;9828;54.122;17.974;2022-09-14T07:49:26;17.20;1.00
19385;DHT22;9828;54.122;17.974;2022-09-14T07:54:47;17.50;99.90
19385;DHT22;9828;54.122;17.974;2022-09-14T08:00:09;16.90;99.90
19385;DHT22;9828;54.122;17.974;2022-09-14T08:05:31;16.20;99.90
19385;DHT22;9828;54.122;17.974;2022-09-14T08:10:53;15.80;99.90
19385;DHT22;9828;54.122;17.974;2022-09-14T08:16:16;15.80;99.90
19385;DHT22;9828;54.122;17.974;2022-09-14T08:21:39;16.90;99.90
19385;DHT22;9828;54.122;17.974;2022-09-14T08:27:02;18.00;99.90
19385;DHT22;9828;54.122;17.974;2022-09-14T08:32:23;18.10;98.80
19385;DHT22;9828;54.122;17.974;2022-09-14T08:37:44;17.50;99.90
19385;DHT22;9828;54.122;17.974;2022-09-14T08:43:07;16.70;99.90
19385;DHT22;9828;54.122;17.974;2022-09-14T08:48:36;16.30;99.90
19385;DHT22;9828;54.122;17.974;2022-09-14T08:53:57;16.20;99.90
19385;DHT22;9828;54.122;17.974;2022-09-14T08:59:32;16.00;99.90
19385;DHT22;9828;54.122;17.974;2022-09-14T09:10:52;15.70;99.90
19385;DHT22;9828;54.122;17.974;2022-09-14T09:16:18;15.70;99.90
19385;DHT22;9828;54.122;17.974;2022-09-14T09:21:44;15.70;99.90
19385;DHT22;9828;54.122;17.974;2022-09-14T09:27:13;15.60;1.00
19385;DHT22;9828;54.122;17.974;2022-09-14T09:32:35;15.90;1.00
19385;DHT22;9828;54.122;17.974;2022-09-14T09:38:33;16.20;1.00
19385;DHT22;9828;54.122;17.974;2022-09-14T09:49:25;16.30;1.00
19385;DHT22;9828;54.122;17.974;2022-09-14T09:54:51;16.30;1.00
19385;DHT22;9828;54.122;17.974;2022-09-14T10:05:40;15.80;1.00
19385;DHT22;9828;54.122;17.974;2022-09-14T10:11:02;15.80;1.00
19385;DHT22;9828;54.122;17.974;2022-09-14T10:16:25;15.70;1.00
19385;DHT22;9828;54.122;17.974;2022-09-14T10:27:40;16.20;1.00
19385;DHT22;9828;54.122;17.974;2022-09-14T10:33:09;16.50;1.00
19385;DHT22;9828;54.122;17.974;2022-09-14T10:50:26;17.70;99.90
19385;DHT22;9828;54.122;17.974;2022-09-14T10:56:12;18.30;99.90
19385;DHT22;9828;54.122;17.974;2022-09-14T11:01:56;18.80;99.90
19385;DHT22;9828;54.122;17.974;2022-09-14T11:24:43;18.50;98.70
19385;DHT22;9828;54.122;17.974;2022-09-14T11:30:17;18.30;97.90
19385;DHT22;9828;54.122;17.974;2022-09-14T11:35:54;18.10;98.60
19385;DHT22;9828;54.122;17.974;2022-09-14T11:52:29;17.60;99.50
19385;DHT22;9828;54.122;17.974;2022-09-14T11:57:51;17.30;99.90
19385;DHT22;9828;54.122;17.974;2022-09-14T12:03:19;17.50;99.90
19385;DHT22;9828;54.122;17.974;2022-09-14T12:08:41;18.20;99.50
19385;DHT22;9828;54.122;17.974;2022-09-14T12:19:51;19.20;95.50
19385;DHT22;9828;54.122;17.974;2022-09-14T12:25:20;19.10;93.20
19385;DHT22;9828;54.122;17.974;2022-09-14T12:37:27;19.50;90.10
19385;DHT22;9828;54.122;17.974;2022-09-14T12:42:30;19.50;88.20
19385;DHT22;9828;54.122;17.974;2022-09-14T12:47:52;19.10;89.10
19385;DHT22;9828;54.122;17.974;2022-09-14T12:53:22;18.70;87.00
19385;DHT22;9828;54.122;17.974;2022-09-14T12:59:06;18.40;89.70
19385;DHT22;9828;54.122;17.974;2022-09-14T13:04:36;18.20;89.10
19385;DHT22;9828;54.122;17.974;2022-09-14T13:10:00;18.50;87.10
19385;DHT22;9828;54.122;17.974;2022-09-14T13:15:25;18.70;85.50
19385;DHT22;9828;54.122;17.974;2022-09-14T13:20:50;18.50;87.60
19385;DHT22;9828;54.122;17.974;2022-09-14T13:26:20;18.30;88.00
19385;DHT22;9828;54.122;17.974;2022-09-14T13:31:44;18.10;90.50
19385;DHT22;9828;54.122;17.974;2022-09-14T13:37:06;17.90;90.20
19385;DHT22;9828;54.122;17.974;2022-09-14T13:42:29;17.60;90.90
19385;DHT22;9828;54.122;17.974;2022-09-14T13:47:51;17.60;92.20
19385;DHT22;9828;54.122;17.974;2022-09-14T13:53:36;17.60;92.30
19385;DHT22;9828;54.122;17.974;2022-09-14T13:59:20;17.40;94.30
19385;DHT22;9828;54.122;17.974;2022-09-14T14:04:47;17.40;94.70
19385;DHT22;9828;54.122;17.974;2022-09-14T14:10:26;17.40;94.90
19385;DHT22;9828;54.122;17.974;2022-09-14T14:15:48;17.40;93.90
19385;DHT22;9828;54.122;17.974;2022-09-14T14:26:55;17.70;93.60
19385;DHT22;9828;54.122;17.974;2022-09-14T14:32:17;18.00;92.60
19385;DHT22;9828;54.122;17.974;2022-09-14T14:37:39;18.00;92.30
19385;DHT22;9828;54.122;17.974;2022-09-14T14:43:01;18.00;90.90
19385;DHT22;9828;54.122;17.974;2022-09-14T14:48:28;17.80;89.90
19385;DHT22;9828;54.122;17.974;2022-09-14T14:53:49;17.60;89.80
19385;DHT22;9828;54.122;17.974;2022-09-14T14:59:32;17.50;88.50
19385;DHT22;9828;54.122;17.974;2022-09-14T15:04:56;17.60;86.60
19385;DHT22;9828;54.122;17.974;2022-09-14T15:10:19;17.50;83.00
19385;DHT22;9828;54.122;17.974;2022-09-14T15:15:43;17.20;81.70
19385;DHT22;9828;54.122;17.974;2022-09-14T15:21:04;17.00;83.80
19385;DHT22;9828;54.122;17.974;2022-09-14T15:26:26;17.00;83.00
19385;DHT22;9828;54.122;17.974;2022-09-14T15:31:47;16.90;83.90
19385;DHT22;9828;54.122;17.974;2022-09-14T15:37:08;16.90;85.20
19385;DHT22;9828;54.122;17.974;2022-09-14T15:42:30;16.90;82.90
19385;DHT22;9828;54.122;17.974;2022-09-14T15:47:52;16.70;81.90
19385;DHT22;9828;54.122;17.974;2022-09-14T15:53:15;16.70;80.70
19385;DHT22;9828;54.122;17.974;2022-09-14T15:58:38;16.70;83.60
19385;DHT22;9828;54.122;17.974;2022-09-14T16:04:02;16.50;85.00
19385;DHT22;9828;54.122;17.974;2022-09-14T16:09:23;16.40;86.40
19385;DHT22;9828;54.122;17.974;2022-09-14T16:14:47;16.40;87.60
19385;DHT22;9828;54.122;17.974;2022-09-14T16:20:09;16.30;87.70
19385;DHT22;9828;54.122;17.974;2022-09-14T16:25:36;16.20;90.40
19385;DHT22;9828;54.122;17.974;2022-09-14T16:31:12;16.10;90.90
19385;DHT22;9828;54.122;17.974;2022-09-14T16:36:54;16.10;91.60
19385;DHT22;9828;54.122;17.974;2022-09-14T16:42:18;16.00;92.00
19385;DHT22;9828;54.122;17.974;2022-09-14T16:47:41;15.80;92.80
19385;DHT22;9828;54.122;17.974;2022-09-14T16:53:02;15.80;93.20
19385;DHT22;9828;54.122;17.974;2022-09-14T16:58:24;15.70;93.80
19385;DHT22;9828;54.122;17.974;2022-09-14T17:04:05;15.70;94.10
19385;DHT22;9828;54.122;17.974;2022-09-14T17:09:34;15.60;93.90
19385;DHT22;9828;54.122;17.974;2022-09-14T17:14:57;15.60;94.10
19385;DHT22;9828;54.122;17.974;2022-09-14T17:20:20;15.50;94.20
19385;DHT22;9828;54.122;17.974;2022-09-14T17:26:05;15.50;94.60
19385;DHT22;9828;54.122;17.974;2022-09-14T17:31:36;15.50;95.20
19385;DHT22;9828;54.122;17.974;2022-09-14T17:36:58;15.40;95.10
19385;DHT22;9828;54.122;17.974;2022-09-14T17:42:49;15.40;95.60
19385;DHT22;9828;54.122;17.974;2022-09-14T17:48:11;15.40;96.30
19385;DHT22;9828;54.122;17.974;2022-09-14T17:53:40;15.40;96.70
19385;DHT22;9828;54.122;17.974;2022-09-14T17:59:05;15.40;97.20
19385;DHT22;9828;54.122;17.974;2022-09-14T18:04:26;15.30;97.40
19385;DHT22;9828;54.122;17.974;2022-09-14T18:09:48;15.20;97.70
19385;DHT22;9828;54.122;17.974;2022-09-14T18:15:13;15.30;98.10
19385;DHT22;9828;54.122;17.974;2022-09-14T18:20:36;15.20;98.30
19385;DHT22;9828;54.122;17.974;2022-09-14T18:26:00;15.10;98.60
19385;DHT22;9828;54.122;17.974;2022-09-14T18:31:21;15.10;99.20
19385;DHT22;9828;54.122;17.974;2022-09-14T18:36:42;15.10;99.40
19385;DHT22;9828;54.122;17.974;2022-09-14T18:42:05;15.10;99.60
19385;DHT22;9828;54.122;17.974;2022-09-14T18:47:26;15.00;99.90
19385;DHT22;9828;54.122;17.974;2022-09-14T18:52:51;15.00;99.90
19385;DHT22;9828;54.122;17.974;2022-09-14T18:58:13;15.00;99.90
19385;DHT22;9828;54.122;17.974;2022-09-14T19:03:35;14.90;99.90
19385;DHT22;9828;54.122;17.974;2022-09-14T19:08:57;14.90;99.90
19385;DHT22;9828;54.122;17.974;2022-09-14T19:14:18;14.90;99.90
19385;DHT22;9828;54.122;17.974;2022-09-14T19:19:42;14.90;99.90
19385;DHT22;9828;54.122;17.974;2022-09-14T19:25:04;14.90;99.90
19385;DHT22;9828;54.122;17.974;2022-09-14T19:30:25;14.80;99.90
19385;DHT22;9828;54.122;17.974;2022-09-14T19:35:47;14.80;99.90
19385;DHT22;9828;54.122;17.974;2022-09-14T19:41:10;14.80;99.90
19385;DHT22;9828;54.122;17.974;2022-09-14T19:46:32;14.80;99.90
19385;DHT22;9828;54.122;17.974;2022-09-14T19:51:54;14.80;99.10
19385;DHT22;9828;54.122;17.974;2022-09-14T19:57:16;14.80;98.80
19385;DHT22;9828;54.122;17.974;2022-09-14T20:02:38;14.70;97.70
19385;DHT22;9828;54.122;17.974;2022-09-14T20:08:00;14.70;96.90
19385;DHT22;9828;54.122;17.974;2022-09-14T20:13:22;14.80;96.60
19385;DHT22;9828;54.122;17.974;2022-09-14T20:18:45;14.80;96.60
19385;DHT22;9828;54.122;17.974;2022-09-14T20:24:11;14.70;96.60
19385;DHT22;9828;54.122;17.974;2022-09-14T20:29:36;14.70;96.80
19385;DHT22;9828;54.122;17.974;2022-09-14T20:34:57;14.70;94.80
19385;DHT22;9828;54.122;17.974;2022-09-14T20:40:19;14.70;92.00
19385;DHT22;9828;54.122;17.974;2022-09-14T20:45:41;14.70;84.70
19385;DHT22;9828;54.122;17.974;2022-09-14T20:51:02;14.70;66.90
19385;DHT22;9828;54.122;17.974;2022-09-14T20:56:26;14.70;75.10
19385;DHT22;9828;54.122;17.974;2022-09-14T21:01:49;14.70;64.50
19385;DHT22;9828;54.122;17.974;2022-09-14T21:07:11;14.60;1.00
19385;DHT22;9828;54.122;17.974;2022-09-14T21:12:32;14.60;1.00
19385;DHT22;9828;54.122;17.974;2022-09-14T21:17:54;14.60;1.00
19385;DHT22;9828;54.122;17.974;2022-09-14T21:23:16;14.50;1.00
19385;DHT22;9828;54.122;17.974;2022-09-14T21:28:39;14.50;1.00
19385;DHT22;9828;54.122;17.974;2022-09-14T21:34:03;14.50;1.00
19385;DHT22;9828;54.122;17.974;2022-09-14T21:39:25;14.50;1.00
19385;DHT22;9828;54.122;17.974;2022-09-14T21:44:46;14.50;1.00
19385;DHT22;9828;54.122;17.974;2022-09-14T21:50:08;14.50;1.00
19385;DHT22;9828;54.122;17.974;2022-09-14T21:55:30;14.40;1.00
19385;DHT22;9828;54.122;17.974;2022-09-14T22:00:56;14.40;1.00
19385;DHT22;9828;54.122;17.974;2022-09-14T22:06:21;14.40;1.00
19385;DHT22;9828;54.122;17.974;2022-09-14T22:11:43;14.40;1.00
19385;DHT22;9828;54.122;17.974;2022-09-14T22:17:05;14.40;1.00
19385;DHT22;9828;54.122;17.974;2022-09-14T22:22:26;14.40;1.00
19385;DHT22;9828;54.122;17.974;2022-09-14T22:27:47;14.30;1.00
19385;DHT22;9828;54.122;17.974;2022-09-14T22:33:09;14.30;1.00
19385;DHT22;9828;54.122;17.974;2022-09-14T22:38:32;14.30;1.00
19385;DHT22;9828;54.122;17.974;2022-09-14T22:43:56;14.30;1.00
19385;DHT22;9828;54.122;17.974;2022-09-14T22:49:18;14.20;30.60
19385;DHT22;9828;54.122;17.974;2022-09-14T22:54:39;14.20;94.60
19385;DHT22;9828;54.122;17.974;2022-09-14T23:00:01;14.20;99.90
19385;DHT22;9828;54.122;17.974;2022-09-14T23:05:23;14.30;99.90
19385;DHT22;9828;54.122;17.974;2022-09-14T23:10:45;14.20;99.90
19385;DHT22;9828;54.122;17.974;2022-09-14T23:16:12;14.20;99.90
19385;DHT22;9828;54.122;17.974;2022-09-14T23:21:34;14.20;99.90
19385;DHT22;9828;54.122;17.974;2022-09-14T23:26:56;14.20;99.90
19385;DHT22;9828;54.122;17.974;2022-09-14T23:32:18;14.20;99.90
19385;DHT22;9828;54.122;17.974;2022-09-14T23:37:39;14.20;99.90
19385;DHT22;9828;54.122;17.974;2022-09-14T23:43:00;14.20;99.90
19385;DHT22;9828;54.122;17.974;2022-09-14T23:48:22;14.20;99.90
19385;DHT22;9828;54.122;17.974;2022-09-14T23:53:44;14.10;99.90
19385;DHT22;9828;54.122;17.974;2022-09-14T23:59:06;14.10;99.90
